sensor_id;sensor_type;location;lat;lon;timestamp;P1;durP1;ratioP1;P2;durP2;ratioP2
51780;SDS011;37844;57.126;24.288;2022-11-15T00:00:05;16.20;;;10.35;;
51780;SDS011;37844;57.126;24.288;2022-11-15T00:02:31;16.85;;;9.23;;
51780;SDS011;37844;57.126;24.288;2022-11-15T00:04:57;16.05;;;10.55;;
51780;SDS011;37844;57.126;24.288;2022-11-15T00:07:22;14.57;;;9.18;;
51780;SDS011;37844;57.126;24.288;2022-11-15T00:09:48;12.50;;;8.90;;
51780;SDS011;37844;57.126;24.288;2022-11-15T00:12:13;15.38;;;10.07;;
51780;SDS011;37844;57.126;24.288;2022-11-15T00:14:39;16.52;;;10.35;;
51780;SDS011;37844;57.126;24.288;2022-11-15T00:17:04;20.08;;;10.82;;
51780;SDS011;37844;57.126;24.288;2022-11-15T00:19:29;16.30;;;9.70;;
51780;SDS011;37844;57.126;24.288;2022-11-15T00:21:55;14.05;;;9.30;;
51780;SDS011;37844;57.126;24.288;2022-11-15T00:24:20;20.35;;;9.90;;
51780;SDS011;37844;57.126;24.288;2022-11-15T00:26:46;15.77;;;10.38;;
51780;SDS011;37844;57.126;24.288;2022-11-15T00:29:11;13.80;;;9.35;;
51780;SDS011;37844;57.126;24.288;2022-11-15T00:31:37;17.13;;;11.35;;
51780;SDS011;37844;57.126;24.288;2022-11-15T00:34:02;13.20;;;9.60;;
51780;SDS011;37844;57.126;24.288;2022-11-15T00:36:27;14.63;;;9.50;;
51780;SDS011;37844;57.126;24.288;2022-11-15T00:38:53;15.65;;;11.57;;
51780;SDS011;37844;57.126;24.288;2022-11-15T00:41:19;19.33;;;11.20;;
51780;SDS011;37844;57.126;24.288;2022-11-15T00:43:44;19.85;;;11.38;;
51780;SDS011;37844;57.126;24.288;2022-11-15T00:46:09;14.85;;;9.88;;
51780;SDS011;37844;57.126;24.288;2022-11-15T00:48:35;20.83;;;10.18;;
51780;SDS011;37844;57.126;24.288;2022-11-15T00:51:01;17.42;;;11.23;;
51780;SDS011;37844;57.126;24.288;2022-11-15T00:53:27;15.52;;;10.98;;
51780;SDS011;37844;57.126;24.288;2022-11-15T00:55:52;23.73;;;11.98;;
51780;SDS011;37844;57.126;24.288;2022-11-15T00:58:18;18.67;;;11.93;;
51780;SDS011;37844;57.126;24.288;2022-11-15T01:00:43;21.67;;;14.73;;
51780;SDS011;37844;57.126;24.288;2022-11-15T01:03:09;20.15;;;13.90;;
51780;SDS011;37844;57.126;24.288;2022-11-15T01:05:36;19.90;;;13.05;;
51780;SDS011;37844;57.126;24.288;2022-11-15T01:08:02;21.50;;;13.65;;
51780;SDS011;37844;57.126;24.288;2022-11-15T01:10:28;17.25;;;12.52;;
51780;SDS011;37844;57.126;24.288;2022-11-15T01:12:53;19.27;;;12.05;;
51780;SDS011;37844;57.126;24.288;2022-11-15T01:15:19;16.00;;;12.00;;
51780;SDS011;37844;57.126;24.288;2022-11-15T01:17:44;21.33;;;12.90;;
51780;SDS011;37844;57.126;24.288;2022-11-15T01:20:10;16.00;;;10.90;;
51780;SDS011;37844;57.126;24.288;2022-11-15T01:22:36;18.27;;;12.55;;
51780;SDS011;37844;57.126;24.288;2022-11-15T01:25:01;16.10;;;10.88;;
51780;SDS011;37844;57.126;24.288;2022-11-15T01:27:27;20.75;;;13.48;;
51780;SDS011;37844;57.126;24.288;2022-11-15T01:29:53;17.17;;;11.82;;
51780;SDS011;37844;57.126;24.288;2022-11-15T01:32:18;17.52;;;11.45;;
51780;SDS011;37844;57.126;24.288;2022-11-15T01:34:44;20.05;;;13.23;;
51780;SDS011;37844;57.126;24.288;2022-11-15T01:37:09;19.00;;;13.43;;
51780;SDS011;37844;57.126;24.288;2022-11-15T01:39:35;19.80;;;13.40;;
51780;SDS011;37844;57.126;24.288;2022-11-15T01:42:00;23.90;;;14.52;;
51780;SDS011;37844;57.126;24.288;2022-11-15T01:47:18;23.88;;;14.23;;
51780;SDS011;37844;57.126;24.288;2022-11-15T01:49:51;22.42;;;14.57;;
51780;SDS011;37844;57.126;24.288;2022-11-15T01:52:24;23.52;;;15.32;;
51780;SDS011;37844;57.126;24.288;2022-11-15T01:54:53;26.63;;;16.52;;
51780;SDS011;37844;57.126;24.288;2022-11-15T01:57:24;22.05;;;15.07;;
51780;SDS011;37844;57.126;24.288;2022-11-15T01:59:49;26.80;;;14.45;;
51780;SDS011;37844;57.126;24.288;2022-11-15T02:02:15;21.48;;;14.60;;
51780;SDS011;37844;57.126;24.288;2022-11-15T02:04:42;21.90;;;14.65;;
51780;SDS011;37844;57.126;24.288;2022-11-15T02:07:10;25.52;;;15.63;;
51780;SDS011;37844;57.126;24.288;2022-11-15T02:09:38;19.80;;;14.10;;
51780;SDS011;37844;57.126;24.288;2022-11-15T02:12:05;22.75;;;14.43;;
51780;SDS011;37844;57.126;24.288;2022-11-15T02:14:33;22.23;;;14.07;;
51780;SDS011;37844;57.126;24.288;2022-11-15T02:35:46;21.40;;;15.18;;
51780;SDS011;37844;57.126;24.288;2022-11-15T02:38:40;20.75;;;12.82;;
51780;SDS011;37844;57.126;24.288;2022-11-15T02:41:11;23.50;;;14.80;;
51780;SDS011;37844;57.126;24.288;2022-11-15T02:43:45;22.67;;;16.75;;
51780;SDS011;37844;57.126;24.288;2022-11-15T02:48:48;21.42;;;14.77;;
51780;SDS011;37844;57.126;24.288;2022-11-15T02:51:14;19.35;;;12.52;;
51780;SDS011;37844;57.126;24.288;2022-11-15T02:53:40;19.77;;;13.75;;
51780;SDS011;37844;57.126;24.288;2022-11-15T02:56:07;23.75;;;15.93;;
51780;SDS011;37844;57.126;24.288;2022-11-15T03:10:02;20.55;;;12.98;;
51780;SDS011;37844;57.126;24.288;2022-11-15T03:15:09;22.35;;;15.50;;
51780;SDS011;37844;57.126;24.288;2022-11-15T03:17:44;23.70;;;14.68;;
51780;SDS011;37844;57.126;24.288;2022-11-15T03:20:16;20.80;;;14.95;;
51780;SDS011;37844;57.126;24.288;2022-11-15T03:22:44;20.88;;;14.80;;
51780;SDS011;37844;57.126;24.288;2022-11-15T03:25:13;24.70;;;16.92;;
51780;SDS011;37844;57.126;24.288;2022-11-15T03:27:46;23.95;;;17.13;;
51780;SDS011;37844;57.126;24.288;2022-11-15T03:30:15;29.85;;;18.73;;
51780;SDS011;37844;57.126;24.288;2022-11-15T03:32:44;24.38;;;15.88;;
51780;SDS011;37844;57.126;24.288;2022-11-15T03:35:17;28.42;;;18.02;;
51780;SDS011;37844;57.126;24.288;2022-11-15T03:37:50;24.58;;;16.25;;
51780;SDS011;37844;57.126;24.288;2022-11-15T03:40:16;31.15;;;20.55;;
51780;SDS011;37844;57.126;24.288;2022-11-15T03:42:53;37.40;;;20.33;;
51780;SDS011;37844;57.126;24.288;2022-11-15T03:45:23;30.08;;;17.98;;
51780;SDS011;37844;57.126;24.288;2022-11-15T03:48:41;32.83;;;20.40;;
51780;SDS011;37844;57.126;24.288;2022-11-15T03:50:49;31.02;;;19.02;;
51780;SDS011;37844;57.126;24.288;2022-11-15T03:53:15;28.80;;;17.70;;
51780;SDS011;37844;57.126;24.288;2022-11-15T03:55:41;32.08;;;16.95;;
51780;SDS011;37844;57.126;24.288;2022-11-15T03:58:06;25.98;;;17.83;;
51780;SDS011;37844;57.126;24.288;2022-11-15T04:00:32;31.13;;;18.80;;
51780;SDS011;37844;57.126;24.288;2022-11-15T04:02:57;39.45;;;20.05;;
51780;SDS011;37844;57.126;24.288;2022-11-15T04:05:23;30.00;;;16.58;;
51780;SDS011;37844;57.126;24.288;2022-11-15T04:07:48;33.38;;;19.55;;
51780;SDS011;37844;57.126;24.288;2022-11-15T04:10:14;32.92;;;19.48;;
51780;SDS011;37844;57.126;24.288;2022-11-15T04:12:40;29.23;;;17.48;;
51780;SDS011;37844;57.126;24.288;2022-11-15T04:15:09;36.97;;;22.83;;
51780;SDS011;37844;57.126;24.288;2022-11-15T04:20:07;37.67;;;20.35;;
51780;SDS011;37844;57.126;24.288;2022-11-15T04:22:54;36.10;;;21.60;;
51780;SDS011;37844;57.126;24.288;2022-11-15T04:25:39;35.28;;;20.25;;
51780;SDS011;37844;57.126;24.288;2022-11-15T04:28:05;37.15;;;19.52;;
51780;SDS011;37844;57.126;24.288;2022-11-15T04:30:31;34.80;;;21.20;;
51780;SDS011;37844;57.126;24.288;2022-11-15T04:32:56;30.10;;;20.00;;
51780;SDS011;37844;57.126;24.288;2022-11-15T04:35:22;41.60;;;23.13;;
51780;SDS011;37844;57.126;24.288;2022-11-15T04:37:47;40.38;;;22.42;;
51780;SDS011;37844;57.126;24.288;2022-11-15T04:40:13;34.03;;;22.67;;
51780;SDS011;37844;57.126;24.288;2022-11-15T04:42:40;37.83;;;21.48;;
51780;SDS011;37844;57.126;24.288;2022-11-15T04:45:06;36.92;;;22.17;;
51780;SDS011;37844;57.126;24.288;2022-11-15T04:47:32;27.83;;;18.88;;
51780;SDS011;37844;57.126;24.288;2022-11-15T04:49:58;35.28;;;22.70;;
51780;SDS011;37844;57.126;24.288;2022-11-15T04:52:23;37.92;;;22.80;;
51780;SDS011;37844;57.126;24.288;2022-11-15T04:54:48;41.25;;;25.10;;
51780;SDS011;37844;57.126;24.288;2022-11-15T04:57:14;39.20;;;25.85;;
51780;SDS011;37844;57.126;24.288;2022-11-15T04:59:40;37.88;;;23.30;;
51780;SDS011;37844;57.126;24.288;2022-11-15T05:02:05;41.10;;;24.48;;
51780;SDS011;37844;57.126;24.288;2022-11-15T05:04:30;35.47;;;22.80;;
51780;SDS011;37844;57.126;24.288;2022-11-15T05:06:56;37.38;;;23.65;;
51780;SDS011;37844;57.126;24.288;2022-11-15T05:09:21;37.67;;;24.08;;
51780;SDS011;37844;57.126;24.288;2022-11-15T05:11:47;47.08;;;29.33;;
51780;SDS011;37844;57.126;24.288;2022-11-15T05:14:13;39.55;;;25.90;;
51780;SDS011;37844;57.126;24.288;2022-11-15T05:16:38;36.92;;;22.88;;
51780;SDS011;37844;57.126;24.288;2022-11-15T05:19:04;42.85;;;24.85;;
51780;SDS011;37844;57.126;24.288;2022-11-15T05:21:31;47.45;;;24.80;;
51780;SDS011;37844;57.126;24.288;2022-11-15T05:23:57;33.72;;;22.95;;
51780;SDS011;37844;57.126;24.288;2022-11-15T05:26:23;88.57;;;62.65;;
51780;SDS011;37844;57.126;24.288;2022-11-15T05:28:52;37.83;;;24.30;;
51780;SDS011;37844;57.126;24.288;2022-11-15T05:31:20;42.70;;;27.98;;
51780;SDS011;37844;57.126;24.288;2022-11-15T05:33:46;38.47;;;25.42;;
51780;SDS011;37844;57.126;24.288;2022-11-15T05:36:13;42.40;;;26.38;;
51780;SDS011;37844;57.126;24.288;2022-11-15T05:38:49;36.13;;;23.13;;
51780;SDS011;37844;57.126;24.288;2022-11-15T05:41:16;43.83;;;24.88;;
51780;SDS011;37844;57.126;24.288;2022-11-15T05:43:43;38.53;;;25.73;;
51780;SDS011;37844;57.126;24.288;2022-11-15T05:46:10;43.72;;;27.58;;
51780;SDS011;37844;57.126;24.288;2022-11-15T05:48:37;43.03;;;26.92;;
51780;SDS011;37844;57.126;24.288;2022-11-15T05:51:08;40.33;;;26.95;;
51780;SDS011;37844;57.126;24.288;2022-11-15T05:53:34;39.72;;;26.00;;
51780;SDS011;37844;57.126;24.288;2022-11-15T05:56:08;45.50;;;30.23;;
51780;SDS011;37844;57.126;24.288;2022-11-15T05:58:34;49.10;;;33.15;;
51780;SDS011;37844;57.126;24.288;2022-11-15T06:01:02;43.28;;;30.33;;
51780;SDS011;37844;57.126;24.288;2022-11-15T06:03:27;48.35;;;32.28;;
51780;SDS011;37844;57.126;24.288;2022-11-15T06:05:53;46.47;;;32.20;;
51780;SDS011;37844;57.126;24.288;2022-11-15T06:08:18;46.10;;;32.92;;
51780;SDS011;37844;57.126;24.288;2022-11-15T06:10:44;48.22;;;32.15;;
51780;SDS011;37844;57.126;24.288;2022-11-15T06:13:09;38.60;;;29.23;;
51780;SDS011;37844;57.126;24.288;2022-11-15T06:15:41;51.75;;;36.35;;
51780;SDS011;37844;57.126;24.288;2022-11-15T06:18:07;42.65;;;31.42;;
51780;SDS011;37844;57.126;24.288;2022-11-15T06:20:32;67.32;;;37.20;;
51780;SDS011;37844;57.126;24.288;2022-11-15T06:23:01;53.17;;;35.70;;
51780;SDS011;37844;57.126;24.288;2022-11-15T06:25:29;53.33;;;38.10;;
51780;SDS011;37844;57.126;24.288;2022-11-15T06:27:55;58.97;;;40.30;;
51780;SDS011;37844;57.126;24.288;2022-11-15T06:30:22;59.70;;;39.67;;
51780;SDS011;37844;57.126;24.288;2022-11-15T06:32:48;52.83;;;40.15;;
51780;SDS011;37844;57.126;24.288;2022-11-15T06:35:13;66.38;;;47.67;;
51780;SDS011;37844;57.126;24.288;2022-11-15T06:37:40;62.38;;;38.53;;
51780;SDS011;37844;57.126;24.288;2022-11-15T06:40:06;51.30;;;40.28;;
51780;SDS011;37844;57.126;24.288;2022-11-15T06:42:32;57.60;;;40.30;;
51780;SDS011;37844;57.126;24.288;2022-11-15T06:44:58;47.30;;;36.25;;
51780;SDS011;37844;57.126;24.288;2022-11-15T06:47:24;55.97;;;39.97;;
51780;SDS011;37844;57.126;24.288;2022-11-15T06:49:49;72.82;;;45.67;;
51780;SDS011;37844;57.126;24.288;2022-11-15T06:52:14;66.15;;;43.92;;
51780;SDS011;37844;57.126;24.288;2022-11-15T06:54:40;57.40;;;42.15;;
51780;SDS011;37844;57.126;24.288;2022-11-15T06:57:05;62.65;;;42.75;;
51780;SDS011;37844;57.126;24.288;2022-11-15T06:59:31;61.83;;;45.35;;
51780;SDS011;37844;57.126;24.288;2022-11-15T07:01:56;60.08;;;40.88;;
51780;SDS011;37844;57.126;24.288;2022-11-15T07:04:22;68.57;;;44.38;;
51780;SDS011;37844;57.126;24.288;2022-11-15T07:06:48;65.47;;;43.80;;
51780;SDS011;37844;57.126;24.288;2022-11-15T07:09:13;66.32;;;43.40;;
51780;SDS011;37844;57.126;24.288;2022-11-15T07:11:39;55.65;;;41.03;;
51780;SDS011;37844;57.126;24.288;2022-11-15T07:14:05;59.65;;;40.20;;
51780;SDS011;37844;57.126;24.288;2022-11-15T07:16:30;48.20;;;37.15;;
51780;SDS011;37844;57.126;24.288;2022-11-15T07:18:56;48.33;;;35.90;;
51780;SDS011;37844;57.126;24.288;2022-11-15T07:21:22;51.80;;;37.40;;
51780;SDS011;37844;57.126;24.288;2022-11-15T07:23:47;47.60;;;35.15;;
51780;SDS011;37844;57.126;24.288;2022-11-15T07:26:12;44.85;;;31.73;;
51780;SDS011;37844;57.126;24.288;2022-11-15T07:28:38;43.97;;;32.03;;
51780;SDS011;37844;57.126;24.288;2022-11-15T07:31:04;54.38;;;35.97;;
51780;SDS011;37844;57.126;24.288;2022-11-15T07:33:32;49.20;;;31.42;;
51780;SDS011;37844;57.126;24.288;2022-11-15T07:36:04;33.28;;;24.13;;
51780;SDS011;37844;57.126;24.288;2022-11-15T07:38:31;30.05;;;24.20;;
51780;SDS011;37844;57.126;24.288;2022-11-15T07:40:57;47.88;;;25.40;;
51780;SDS011;37844;57.126;24.288;2022-11-15T07:43:24;37.05;;;25.67;;
51780;SDS011;37844;57.126;24.288;2022-11-15T07:45:50;32.22;;;22.92;;
51780;SDS011;37844;57.126;24.288;2022-11-15T07:48:15;36.45;;;24.02;;
51780;SDS011;37844;57.126;24.288;2022-11-15T07:50:41;35.40;;;21.50;;
51780;SDS011;37844;57.126;24.288;2022-11-15T07:53:08;36.58;;;23.00;;
51780;SDS011;37844;57.126;24.288;2022-11-15T07:55:34;42.88;;;22.80;;
51780;SDS011;37844;57.126;24.288;2022-11-15T07:58:03;32.88;;;21.92;;
51780;SDS011;37844;57.126;24.288;2022-11-15T08:00:33;42.08;;;24.33;;
51780;SDS011;37844;57.126;24.288;2022-11-15T08:03:09;32.22;;;21.50;;
51780;SDS011;37844;57.126;24.288;2022-11-15T08:05:39;27.98;;;19.75;;
51780;SDS011;37844;57.126;24.288;2022-11-15T08:08:06;38.55;;;23.92;;
51780;SDS011;37844;57.126;24.288;2022-11-15T08:10:34;40.97;;;24.30;;
51780;SDS011;37844;57.126;24.288;2022-11-15T08:13:01;34.45;;;21.48;;
51780;SDS011;37844;57.126;24.288;2022-11-15T08:15:29;34.47;;;21.67;;
51780;SDS011;37844;57.126;24.288;2022-11-15T08:17:55;28.27;;;20.00;;
51780;SDS011;37844;57.126;24.288;2022-11-15T08:20:22;31.85;;;21.90;;
51780;SDS011;37844;57.126;24.288;2022-11-15T08:22:48;34.38;;;22.65;;
51780;SDS011;37844;57.126;24.288;2022-11-15T08:25:13;33.05;;;20.73;;
51780;SDS011;37844;57.126;24.288;2022-11-15T08:27:39;32.80;;;20.00;;
51780;SDS011;37844;57.126;24.288;2022-11-15T08:30:04;32.17;;;20.10;;
51780;SDS011;37844;57.126;24.288;2022-11-15T08:32:31;34.60;;;22.38;;
51780;SDS011;37844;57.126;24.288;2022-11-15T08:34:57;31.67;;;20.50;;
51780;SDS011;37844;57.126;24.288;2022-11-15T08:37:22;25.48;;;17.33;;
51780;SDS011;37844;57.126;24.288;2022-11-15T08:39:48;31.60;;;18.95;;
51780;SDS011;37844;57.126;24.288;2022-11-15T08:42:13;24.58;;;16.67;;
51780;SDS011;37844;57.126;24.288;2022-11-15T08:44:41;30.40;;;18.08;;
51780;SDS011;37844;57.126;24.288;2022-11-15T08:47:06;22.42;;;12.65;;
51780;SDS011;37844;57.126;24.288;2022-11-15T08:49:32;19.50;;;12.48;;
51780;SDS011;37844;57.126;24.288;2022-11-15T08:51:57;23.88;;;11.68;;
51780;SDS011;37844;57.126;24.288;2022-11-15T08:54:23;20.48;;;9.63;;
51780;SDS011;37844;57.126;24.288;2022-11-15T08:56:48;19.45;;;11.02;;
51780;SDS011;37844;57.126;24.288;2022-11-15T08:59:14;19.17;;;10.60;;
51780;SDS011;37844;57.126;24.288;2022-11-15T09:01:39;16.90;;;9.63;;
51780;SDS011;37844;57.126;24.288;2022-11-15T09:04:04;13.00;;;8.45;;
51780;SDS011;37844;57.126;24.288;2022-11-15T09:06:30;11.40;;;7.45;;
51780;SDS011;37844;57.126;24.288;2022-11-15T09:08:56;10.40;;;6.03;;
51780;SDS011;37844;57.126;24.288;2022-11-15T09:11:22;9.60;;;4.82;;
51780;SDS011;37844;57.126;24.288;2022-11-15T09:13:48;13.10;;;8.55;;
51780;SDS011;37844;57.126;24.288;2022-11-15T09:16:15;9.25;;;3.72;;
51780;SDS011;37844;57.126;24.288;2022-11-15T09:18:41;10.40;;;5.82;;
51780;SDS011;37844;57.126;24.288;2022-11-15T09:21:06;5.40;;;2.65;;
51780;SDS011;37844;57.126;24.288;2022-11-15T09:23:32;7.43;;;2.80;;
51780;SDS011;37844;57.126;24.288;2022-11-15T09:25:58;5.32;;;2.65;;
51780;SDS011;37844;57.126;24.288;2022-11-15T09:28:26;4.88;;;2.72;;
51780;SDS011;37844;57.126;24.288;2022-11-15T09:30:55;4.95;;;2.13;;
51780;SDS011;37844;57.126;24.288;2022-11-15T09:33:22;6.60;;;2.45;;
51780;SDS011;37844;57.126;24.288;2022-11-15T09:35:48;9.85;;;3.58;;
51780;SDS011;37844;57.126;24.288;2022-11-15T09:38:13;6.75;;;2.83;;
51780;SDS011;37844;57.126;24.288;2022-11-15T09:40:38;6.53;;;2.17;;
51780;SDS011;37844;57.126;24.288;2022-11-15T09:51:10;7.57;;;2.00;;
51780;SDS011;37844;57.126;24.288;2022-11-15T09:56:29;5.72;;;2.97;;
51780;SDS011;37844;57.126;24.288;2022-11-15T10:04:27;5.90;;;2.50;;
51780;SDS011;37844;57.126;24.288;2022-11-15T10:07:04;5.80;;;1.73;;
51780;SDS011;37844;57.126;24.288;2022-11-15T10:09:41;5.13;;;2.25;;
51780;SDS011;37844;57.126;24.288;2022-11-15T10:12:12;5.47;;;2.22;;
51780;SDS011;37844;57.126;24.288;2022-11-15T10:14:39;7.15;;;2.85;;
51780;SDS011;37844;57.126;24.288;2022-11-15T10:25:28;7.45;;;2.88;;
51780;SDS011;37844;57.126;24.288;2022-11-15T10:28:06;6.68;;;3.13;;
51780;SDS011;37844;57.126;24.288;2022-11-15T10:30:55;9.23;;;3.17;;
51780;SDS011;37844;57.126;24.288;2022-11-15T10:44:21;2.25;;;1.45;;
51780;SDS011;37844;57.126;24.288;2022-11-15T10:46:41;6.18;;;2.10;;
51780;SDS011;37844;57.126;24.288;2022-11-15T10:49:12;6.15;;;2.38;;
51780;SDS011;37844;57.126;24.288;2022-11-15T10:51:57;8.48;;;1.60;;
51780;SDS011;37844;57.126;24.288;2022-11-15T10:57:15;3.60;;;1.95;;
51780;SDS011;37844;57.126;24.288;2022-11-15T10:59:49;5.45;;;1.85;;
51780;SDS011;37844;57.126;24.288;2022-11-15T11:05:01;4.05;;;1.90;;
51780;SDS011;37844;57.126;24.288;2022-11-15T11:07:33;6.63;;;2.75;;
51780;SDS011;37844;57.126;24.288;2022-11-15T11:10:20;7.90;;;2.85;;
51780;SDS011;37844;57.126;24.288;2022-11-15T11:12:46;3.75;;;2.40;;
51780;SDS011;37844;57.126;24.288;2022-11-15T11:15:12;5.80;;;2.75;;
51780;SDS011;37844;57.126;24.288;2022-11-15T11:17:50;7.60;;;2.83;;
51780;SDS011;37844;57.126;24.288;2022-11-15T11:20:33;6.05;;;2.60;;
51780;SDS011;37844;57.126;24.288;2022-11-15T11:23:12;7.28;;;2.70;;
51780;SDS011;37844;57.126;24.288;2022-11-15T11:28:50;10.80;;;3.50;;
51780;SDS011;37844;57.126;24.288;2022-11-15T11:40:14;5.35;;;2.22;;
51780;SDS011;37844;57.126;24.288;2022-11-15T11:46:05;8.32;;;2.78;;
51780;SDS011;37844;57.126;24.288;2022-11-15T11:51:18;8.00;;;3.25;;
51780;SDS011;37844;57.126;24.288;2022-11-15T11:53:55;7.85;;;3.33;;
51780;SDS011;37844;57.126;24.288;2022-11-15T11:56:36;7.45;;;3.03;;
51780;SDS011;37844;57.126;24.288;2022-11-15T12:04:57;7.35;;;2.58;;
51780;SDS011;37844;57.126;24.288;2022-11-15T12:07:31;7.93;;;3.08;;
51780;SDS011;37844;57.126;24.288;2022-11-15T12:10:22;5.30;;;2.50;;
51780;SDS011;37844;57.126;24.288;2022-11-15T12:15:39;5.10;;;2.50;;
51780;SDS011;37844;57.126;24.288;2022-11-15T12:18:12;6.20;;;2.58;;
51780;SDS011;37844;57.126;24.288;2022-11-15T12:20:41;6.63;;;2.65;;
51780;SDS011;37844;57.126;24.288;2022-11-15T12:23:19;9.85;;;2.85;;
51780;SDS011;37844;57.126;24.288;2022-11-15T12:28:39;8.30;;;3.40;;
51780;SDS011;37844;57.126;24.288;2022-11-15T12:34:02;4.75;;;2.00;;
51780;SDS011;37844;57.126;24.288;2022-11-15T12:36:38;11.82;;;3.83;;
51780;SDS011;37844;57.126;24.288;2022-11-15T12:39:07;8.15;;;4.43;;
51780;SDS011;37844;57.126;24.288;2022-11-15T12:44:12;6.10;;;2.50;;
51780;SDS011;37844;57.126;24.288;2022-11-15T12:59:48;10.30;;;3.63;;
51780;SDS011;37844;57.126;24.288;2022-11-15T13:02:37;7.20;;;3.30;;
51780;SDS011;37844;57.126;24.288;2022-11-15T13:17:51;14.13;;;3.17;;
51780;SDS011;37844;57.126;24.288;2022-11-15T13:22:50;10.85;;;4.07;;
51780;SDS011;37844;57.126;24.288;2022-11-15T13:27:52;10.38;;;4.03;;
51780;SDS011;37844;57.126;24.288;2022-11-15T13:30:23;13.32;;;4.88;;
51780;SDS011;37844;57.126;24.288;2022-11-15T13:32:50;10.13;;;4.97;;
51780;SDS011;37844;57.126;24.288;2022-11-15T13:35:26;10.43;;;4.25;;
51780;SDS011;37844;57.126;24.288;2022-11-15T13:37:54;11.40;;;4.10;;
51780;SDS011;37844;57.126;24.288;2022-11-15T13:42:56;9.55;;;4.43;;
51780;SDS011;37844;57.126;24.288;2022-11-15T13:45:22;6.50;;;3.67;;
51780;SDS011;37844;57.126;24.288;2022-11-15T13:47:53;9.77;;;4.28;;
51780;SDS011;37844;57.126;24.288;2022-11-15T13:50:21;9.40;;;3.53;;
51780;SDS011;37844;57.126;24.288;2022-11-15T13:52:58;6.88;;;3.28;;
51780;SDS011;37844;57.126;24.288;2022-11-15T13:55:28;8.00;;;2.78;;
51780;SDS011;37844;57.126;24.288;2022-11-15T13:57:58;7.57;;;2.47;;
51780;SDS011;37844;57.126;24.288;2022-11-15T14:00:40;8.15;;;3.75;;
51780;SDS011;37844;57.126;24.288;2022-11-15T14:03:50;6.80;;;2.55;;
51780;SDS011;37844;57.126;24.288;2022-11-15T14:08:37;16.05;;;7.32;;
51780;SDS011;37844;57.126;24.288;2022-11-15T14:13:38;9.18;;;3.15;;
51780;SDS011;37844;57.126;24.288;2022-11-15T14:16:16;7.60;;;3.97;;
51780;SDS011;37844;57.126;24.288;2022-11-15T14:18:50;4.95;;;2.20;;
51780;SDS011;37844;57.126;24.288;2022-11-15T14:21:18;7.10;;;2.28;;
51780;SDS011;37844;57.126;24.288;2022-11-15T14:23:44;9.90;;;2.50;;
51780;SDS011;37844;57.126;24.288;2022-11-15T14:26:28;5.68;;;2.50;;
51780;SDS011;37844;57.126;24.288;2022-11-15T14:31:53;4.13;;;2.20;;
51780;SDS011;37844;57.126;24.288;2022-11-15T14:34:34;5.10;;;2.25;;
51780;SDS011;37844;57.126;24.288;2022-11-15T14:36:59;2.45;;;1.60;;
51780;SDS011;37844;57.126;24.288;2022-11-15T14:39:24;8.48;;;2.67;;
51780;SDS011;37844;57.126;24.288;2022-11-15T14:41:50;10.48;;;3.70;;
51780;SDS011;37844;57.126;24.288;2022-11-15T14:44:15;9.02;;;2.53;;
51780;SDS011;37844;57.126;24.288;2022-11-15T14:46:43;9.75;;;3.85;;
51780;SDS011;37844;57.126;24.288;2022-11-15T14:49:09;9.50;;;3.55;;
51780;SDS011;37844;57.126;24.288;2022-11-15T14:51:34;5.97;;;3.00;;
51780;SDS011;37844;57.126;24.288;2022-11-15T14:54:00;7.88;;;3.60;;
51780;SDS011;37844;57.126;24.288;2022-11-15T14:56:26;7.95;;;3.28;;
51780;SDS011;37844;57.126;24.288;2022-11-15T14:58:52;4.35;;;2.50;;
51780;SDS011;37844;57.126;24.288;2022-11-15T15:01:22;3.28;;;1.73;;
51780;SDS011;37844;57.126;24.288;2022-11-15T15:03:50;7.18;;;3.33;;
51780;SDS011;37844;57.126;24.288;2022-11-15T15:06:17;5.10;;;2.55;;
51780;SDS011;37844;57.126;24.288;2022-11-15T15:08:44;8.40;;;2.80;;
51780;SDS011;37844;57.126;24.288;2022-11-15T15:11:13;7.72;;;2.47;;
51780;SDS011;37844;57.126;24.288;2022-11-15T15:13:40;6.03;;;2.45;;
51780;SDS011;37844;57.126;24.288;2022-11-15T15:16:06;6.28;;;2.58;;
51780;SDS011;37844;57.126;24.288;2022-11-15T15:18:31;7.40;;;3.08;;
51780;SDS011;37844;57.126;24.288;2022-11-15T15:20:57;6.47;;;2.85;;
51780;SDS011;37844;57.126;24.288;2022-11-15T15:23:32;6.63;;;2.72;;
51780;SDS011;37844;57.126;24.288;2022-11-15T15:25:58;5.78;;;2.70;;
51780;SDS011;37844;57.126;24.288;2022-11-15T15:28:23;7.43;;;2.92;;
51780;SDS011;37844;57.126;24.288;2022-11-15T15:30:49;6.65;;;2.80;;
51780;SDS011;37844;57.126;24.288;2022-11-15T15:33:15;5.57;;;2.30;;
51780;SDS011;37844;57.126;24.288;2022-11-15T15:35:41;7.07;;;3.30;;
51780;SDS011;37844;57.126;24.288;2022-11-15T15:38:09;12.57;;;5.22;;
51780;SDS011;37844;57.126;24.288;2022-11-15T15:40:36;8.23;;;3.88;;
51780;SDS011;37844;57.126;24.288;2022-11-15T15:43:02;11.18;;;2.92;;
51780;SDS011;37844;57.126;24.288;2022-11-15T15:45:27;5.05;;;2.63;;
51780;SDS011;37844;57.126;24.288;2022-11-15T15:47:54;5.68;;;3.33;;
51780;SDS011;37844;57.126;24.288;2022-11-15T15:50:31;7.80;;;3.53;;
51780;SDS011;37844;57.126;24.288;2022-11-15T15:52:59;5.18;;;2.83;;
51780;SDS011;37844;57.126;24.288;2022-11-15T15:55:26;7.82;;;3.25;;
51780;SDS011;37844;57.126;24.288;2022-11-15T15:57:52;9.52;;;3.97;;
51780;SDS011;37844;57.126;24.288;2022-11-15T16:00:18;8.00;;;3.80;;
51780;SDS011;37844;57.126;24.288;2022-11-15T16:02:45;8.23;;;3.78;;
51780;SDS011;37844;57.126;24.288;2022-11-15T16:05:10;12.00;;;3.63;;
51780;SDS011;37844;57.126;24.288;2022-11-15T16:07:37;7.65;;;3.85;;
51780;SDS011;37844;57.126;24.288;2022-11-15T16:10:13;9.82;;;5.72;;
51780;SDS011;37844;57.126;24.288;2022-11-15T16:12:45;8.52;;;4.07;;
51780;SDS011;37844;57.126;24.288;2022-11-15T16:15:11;8.05;;;4.18;;
51780;SDS011;37844;57.126;24.288;2022-11-15T16:17:46;8.30;;;4.40;;
51780;SDS011;37844;57.126;24.288;2022-11-15T16:20:29;6.10;;;3.15;;
51780;SDS011;37844;57.126;24.288;2022-11-15T16:22:57;7.18;;;3.05;;
51780;SDS011;37844;57.126;24.288;2022-11-15T16:25:23;3.58;;;2.47;;
51780;SDS011;37844;57.126;24.288;2022-11-15T16:27:49;4.65;;;3.17;;
51780;SDS011;37844;57.126;24.288;2022-11-15T16:30:16;7.05;;;3.28;;
51780;SDS011;37844;57.126;24.288;2022-11-15T16:32:44;3.42;;;2.50;;
51780;SDS011;37844;57.126;24.288;2022-11-15T16:35:12;5.25;;;3.13;;
51780;SDS011;37844;57.126;24.288;2022-11-15T16:37:45;5.70;;;3.35;;
51780;SDS011;37844;57.126;24.288;2022-11-15T16:40:31;3.88;;;2.75;;
51780;SDS011;37844;57.126;24.288;2022-11-15T16:42:58;7.13;;;3.97;;
51780;SDS011;37844;57.126;24.288;2022-11-15T16:45:26;8.68;;;5.43;;
51780;SDS011;37844;57.126;24.288;2022-11-15T16:47:53;8.30;;;4.80;;
51780;SDS011;37844;57.126;24.288;2022-11-15T16:50:20;7.72;;;3.97;;
51780;SDS011;37844;57.126;24.288;2022-11-15T16:52:55;5.40;;;3.67;;
51780;SDS011;37844;57.126;24.288;2022-11-15T16:55:28;9.00;;;4.65;;
51780;SDS011;37844;57.126;24.288;2022-11-15T16:57:55;6.13;;;4.15;;
51780;SDS011;37844;57.126;24.288;2022-11-15T17:00:24;7.13;;;3.70;;
51780;SDS011;37844;57.126;24.288;2022-11-15T17:02:50;6.57;;;4.03;;